createdAt,value
2023-02-07T00:00:04.305Z,21.80
2023-02-07T00:01:05.334Z,23.60
2023-02-07T00:02:04.356Z,23.80
2023-02-07T00:03:04.297Z,24.20
2023-02-07T00:04:04.290Z,24.00
2023-02-07T00:05:05.008Z,24.00
2023-02-07T00:06:04.314Z,25.20
2023-02-07T00:07:04.261Z,24.30
2023-02-07T00:08:04.252Z,25.70
2023-02-07T00:09:04.238Z,26.50
2023-02-07T00:10:04.241Z,24.60
2023-02-07T00:11:04.265Z,25.40
2023-02-07T00:12:04.220Z,26.00
2023-02-07T00:13:06.318Z,25.70
2023-02-07T00:14:05.230Z,24.20
2023-02-07T00:15:04.195Z,25.30
2023-02-07T00:16:05.243Z,25.60
2023-02-07T00:17:04.189Z,24.60
2023-02-07T00:18:04.177Z,26.60
2023-02-07T00:19:04.178Z,26.40
2023-02-07T00:20:04.163Z,24.80
2023-02-07T00:21:04.201Z,24.70
2023-02-07T00:22:04.143Z,24.80
2023-02-07T00:23:04.137Z,25.10
2023-02-07T00:24:04.160Z,24.20
2023-02-07T00:25:04.117Z,26.00
2023-02-07T00:26:04.117Z,24.90
2023-02-07T00:27:04.143Z,24.60
2023-02-07T00:28:04.163Z,25.40
2023-02-07T00:29:04.093Z,24.40
2023-02-07T00:30:04.090Z,24.00
2023-02-07T00:31:04.166Z,23.20
2023-02-07T00:32:04.104Z,26.20
2023-02-07T00:33:04.064Z,25.20
2023-02-07T00:34:04.089Z,25.10
2023-02-07T00:35:04.053Z,24.20
2023-02-07T00:36:04.044Z,26.20
2023-02-07T00:37:04.091Z,24.50
2023-02-07T00:38:04.029Z,27.40
2023-02-07T00:39:04.022Z,24.20
2023-02-07T00:40:04.009Z,23.90
2023-02-07T00:41:04.034Z,25.20
2023-02-07T00:42:04.022Z,26.20
2023-02-07T00:43:03.987Z,24.20
2023-02-07T00:44:03.989Z,24.70
2023-02-07T00:45:03.989Z,25.90
2023-02-07T00:46:03.991Z,27.10
2023-02-07T00:47:03.987Z,27.40
2023-02-07T00:48:03.953Z,27.60
2023-02-07T00:49:03.971Z,27.60
2023-02-07T00:50:03.934Z,26.50
2023-02-07T00:51:03.919Z,27.00
2023-02-07T00:52:03.938Z,27.00
2023-02-07T00:53:03.912Z,27.90
2023-02-07T00:54:03.900Z,27.70
2023-02-07T00:55:03.898Z,27.20
2023-02-07T00:56:03.886Z,26.90
2023-02-07T00:57:03.906Z,28.40
2023-02-07T00:58:03.866Z,27.20
2023-02-07T00:59:03.858Z,28.20
2023-02-07T01:00:04.859Z,28.00
2023-02-07T01:01:03.887Z,27.70
2023-02-07T01:02:03.870Z,29.50
2023-02-07T01:03:03.843Z,30.30
2023-02-07T01:04:03.821Z,29.50
2023-02-07T01:05:04.009Z,29.90
2023-02-07T01:06:03.822Z,29.80
2023-02-07T01:07:03.847Z,29.40
2023-02-07T01:08:03.815Z,29.10
2023-02-07T01:09:03.797Z,28.60
2023-02-07T01:10:03.819Z,29.70
2023-02-07T01:11:03.776Z,30.10
2023-02-07T01:12:03.805Z,28.90
2023-02-07T01:13:03.771Z,30.40
2023-02-07T01:14:03.773Z,29.80
2023-02-07T01:15:03.756Z,27.00
2023-02-07T01:16:03.781Z,29.30
2023-02-07T01:17:03.785Z,28.90
2023-02-07T01:18:03.739Z,29.30
2023-02-07T01:19:03.757Z,31.90
2023-02-07T01:20:03.727Z,31.90
2023-02-07T01:21:03.701Z,31.50
2023-02-07T01:22:04.730Z,32.60
2023-02-07T01:23:03.695Z,29.80
2023-02-07T01:24:03.700Z,31.40
2023-02-07T01:25:03.683Z,32.50
2023-02-07T01:26:03.671Z,31.30
2023-02-07T01:27:03.690Z,29.10
2023-02-07T01:28:03.724Z,27.00
2023-02-07T01:29:04.665Z,30.20
2023-02-07T01:30:03.696Z,29.20
2023-02-07T01:31:03.710Z,30.50
2023-02-07T01:32:03.692Z,30.30
2023-02-07T01:33:03.622Z,29.80
2023-02-07T01:34:05.515Z,30.00
2023-02-07T01:35:04.605Z,32.10
2023-02-07T01:36:03.599Z,30.70
2023-02-07T01:37:03.618Z,30.40
2023-02-07T01:38:03.608Z,29.90
2023-02-07T01:39:03.569Z,31.90
2023-02-07T01:40:03.570Z,29.70
2023-02-07T01:41:03.577Z,31.90
2023-02-07T01:42:03.591Z,34.00
2023-02-07T01:43:03.565Z,34.00
2023-02-07T01:44:03.534Z,30.90
2023-02-07T01:45:03.527Z,28.80
2023-02-07T01:46:03.652Z,29.80
2023-02-07T01:47:03.508Z,30.30
2023-02-07T01:48:03.518Z,29.60
2023-02-07T01:49:03.492Z,29.30
2023-02-07T01:50:03.508Z,30.30
2023-02-07T01:51:03.477Z,32.10
2023-02-07T01:52:03.468Z,32.90
2023-02-07T01:53:03.493Z,40.80
2023-02-07T01:54:03.452Z,34.10
2023-02-07T01:55:03.459Z,42.00
2023-02-07T01:56:03.439Z,29.10
2023-02-07T01:57:03.784Z,33.80
2023-02-07T01:58:03.474Z,35.40
2023-02-07T01:59:03.418Z,37.80
2023-02-07T02:00:03.429Z,33.50
2023-02-07T02:01:03.402Z,34.60
2023-02-07T02:02:03.406Z,34.20
2023-02-07T02:03:03.435Z,35.40
2023-02-07T02:04:03.387Z,37.20
2023-02-07T02:05:03.378Z,36.60
2023-02-07T02:06:03.379Z,34.80
2023-02-07T02:07:03.364Z,32.40
2023-02-07T02:08:03.378Z,32.60
2023-02-07T02:09:03.345Z,32.70
2023-02-07T02:10:03.360Z,31.50
2023-02-07T02:11:03.342Z,30.70
2023-02-07T02:12:03.332Z,30.30
2023-02-07T02:13:03.350Z,30.70
2023-02-07T02:14:03.375Z,31.00
2023-02-07T02:15:03.340Z,31.20
2023-02-07T02:16:03.369Z,30.80
2023-02-07T02:17:03.294Z,31.40
2023-02-07T02:18:03.329Z,32.00
2023-02-07T02:19:03.280Z,35.60
2023-02-07T02:20:03.269Z,34.80
2023-02-07T02:21:03.275Z,36.90
2023-02-07T02:22:03.269Z,33.60
2023-02-07T02:23:03.278Z,33.10
2023-02-07T02:24:03.249Z,32.40
2023-02-07T02:25:03.255Z,33.50
2023-02-07T02:26:03.235Z,32.20
2023-02-07T02:27:03.223Z,33.00
2023-02-07T02:28:03.261Z,30.90
2023-02-07T02:29:03.218Z,32.20
2023-02-07T02:30:03.199Z,30.50
2023-02-07T02:31:03.243Z,30.70
2023-02-07T02:32:03.191Z,31.80
2023-02-07T02:33:03.217Z,31.40
2023-02-07T02:34:03.172Z,33.80
2023-02-07T02:35:03.187Z,32.40
2023-02-07T02:36:03.157Z,33.10
2023-02-07T02:37:03.154Z,33.50
2023-02-07T02:38:03.154Z,32.70
2023-02-07T02:39:03.211Z,32.90
2023-02-07T02:40:04.141Z,32.60
2023-02-07T02:41:03.188Z,33.40
2023-02-07T02:42:03.122Z,32.70
2023-02-07T02:43:03.117Z,30.80
2023-02-07T02:44:03.130Z,33.40
2023-02-07T02:45:03.105Z,33.90
2023-02-07T02:46:03.096Z,32.70
2023-02-07T02:47:03.089Z,34.10
2023-02-07T02:48:03.107Z,32.70
2023-02-07T02:49:03.112Z,33.80
2023-02-07T02:50:03.068Z,33.30
2023-02-07T02:51:03.065Z,33.00
2023-02-07T02:52:03.049Z,33.00
2023-02-07T02:53:03.047Z,34.10
2023-02-07T02:54:03.074Z,34.50
2023-02-07T02:55:03.054Z,36.80
2023-02-07T02:56:03.031Z,37.20
2023-02-07T02:57:03.023Z,36.10
2023-02-07T02:58:03.008Z,40.90
2023-02-07T02:59:03.052Z,41.00
2023-02-07T03:00:02.992Z,36.50
2023-02-07T03:01:03.008Z,36.30
2023-02-07T03:02:02.990Z,37.10
2023-02-07T03:03:02.985Z,37.20
2023-02-07T03:04:02.991Z,36.80
2023-02-07T03:05:03.009Z,34.70
2023-02-07T03:06:02.951Z,37.90
2023-02-07T03:07:02.952Z,35.70
2023-02-07T03:08:02.944Z,36.60
2023-02-07T03:09:02.991Z,39.10
2023-02-07T03:10:02.968Z,38.10
2023-02-07T03:11:02.924Z,37.40
2023-02-07T03:12:02.913Z,37.50
2023-02-07T03:13:02.971Z,37.50
2023-02-07T03:14:02.950Z,37.10
2023-02-07T03:15:02.894Z,37.70
2023-02-07T03:16:02.911Z,38.90
2023-02-07T03:17:02.881Z,38.40
2023-02-07T03:18:02.897Z,39.50
2023-02-07T03:19:02.863Z,38.90
2023-02-07T03:20:02.879Z,39.20
2023-02-07T03:21:02.878Z,38.40
2023-02-07T03:22:02.841Z,41.60
2023-02-07T03:23:02.837Z,40.80
2023-02-07T03:24:02.892Z,38.20
2023-02-07T03:25:02.921Z,38.60
2023-02-07T03:26:02.817Z,39.10
2023-02-07T03:27:02.826Z,39.00
2023-02-07T03:28:02.914Z,38.10
2023-02-07T03:29:02.787Z,37.20
2023-02-07T03:30:02.810Z,39.10
2023-02-07T03:31:02.897Z,39.20
2023-02-07T03:32:02.775Z,38.60
2023-02-07T03:33:02.784Z,37.40
2023-02-07T03:34:02.754Z,38.10
2023-02-07T03:35:02.770Z,40.20
2023-02-07T03:36:02.747Z,38.40
2023-02-07T03:37:02.743Z,40.80
2023-02-07T03:38:02.793Z,39.60
2023-02-07T03:39:02.735Z,40.70
2023-02-07T03:40:02.748Z,38.20
2023-02-07T03:41:02.721Z,41.30
2023-02-07T03:42:02.696Z,40.90
2023-02-07T03:43:02.694Z,42.30
2023-02-07T03:44:02.738Z,39.50
2023-02-07T03:45:02.710Z,39.70
2023-02-07T03:46:02.674Z,38.90
2023-02-07T03:47:02.660Z,39.60
2023-02-07T03:48:02.661Z,40.00
2023-02-07T03:49:02.651Z,40.50
2023-02-07T03:50:02.670Z,39.50
2023-02-07T03:51:02.636Z,38.60
2023-02-07T03:52:02.628Z,41.20
2023-02-07T03:53:02.651Z,38.50
2023-02-07T03:54:02.609Z,40.10
2023-02-07T03:55:02.633Z,38.00
2023-02-07T03:56:02.603Z,39.70
2023-02-07T03:57:02.595Z,39.80
2023-02-07T03:58:02.590Z,40.20
2023-02-07T03:59:02.574Z,39.00
2023-02-07T04:00:02.598Z,39.30
2023-02-07T04:01:02.589Z,38.80
2023-02-07T04:02:02.591Z,40.90
2023-02-07T04:03:02.557Z,38.90
2023-02-07T04:04:02.540Z,39.70
2023-02-07T04:05:02.564Z,38.40
2023-02-07T04:06:02.525Z,40.50
2023-02-07T04:07:02.520Z,39.80
2023-02-07T04:08:02.541Z,40.10
2023-02-07T04:09:02.510Z,41.00
2023-02-07T04:10:02.545Z,39.80
2023-02-07T04:11:02.522Z,38.90
2023-02-07T04:12:02.500Z,38.90
2023-02-07T04:13:02.489Z,39.60
2023-02-07T04:14:02.467Z,38.40
2023-02-07T04:15:02.963Z,36.90
2023-02-07T04:16:02.478Z,39.60
2023-02-07T04:17:02.474Z,38.00
2023-02-07T04:18:02.450Z,36.60
2023-02-07T04:19:02.440Z,39.10
2023-02-07T04:20:02.441Z,37.00
2023-02-07T04:21:02.455Z,37.60
2023-02-07T04:22:02.427Z,39.20
2023-02-07T04:23:02.412Z,37.40
2023-02-07T04:24:02.404Z,38.40
2023-02-07T04:25:02.426Z,37.50
2023-02-07T04:26:02.406Z,40.10
2023-02-07T04:27:02.392Z,38.20
2023-02-07T04:28:02.392Z,38.00
2023-02-07T04:29:02.374Z,38.50
2023-02-07T04:30:02.360Z,40.10
2023-02-07T04:31:02.377Z,39.50
2023-02-07T04:32:02.459Z,38.10
2023-02-07T04:33:02.341Z,38.10
2023-02-07T04:34:02.384Z,38.50
2023-02-07T04:35:02.323Z,38.10
2023-02-07T04:36:02.346Z,39.00
2023-02-07T04:37:02.307Z,39.40
2023-02-07T04:38:02.302Z,37.00
2023-02-07T04:39:02.363Z,38.60
2023-02-07T04:40:02.288Z,40.60
2023-02-07T04:41:02.307Z,39.40
2023-02-07T04:42:02.281Z,40.80
2023-02-07T04:43:02.270Z,42.10
2023-02-07T04:44:02.267Z,41.70
2023-02-07T04:45:02.263Z,39.40
2023-02-07T04:46:02.337Z,39.50
2023-02-07T04:47:02.248Z,40.20
2023-02-07T04:48:02.230Z,39.70
2023-02-07T04:49:02.227Z,38.80
2023-02-07T04:50:02.223Z,41.00
2023-02-07T04:51:02.240Z,41.20
2023-02-07T04:52:02.236Z,40.10
2023-02-07T04:53:02.193Z,42.70
2023-02-07T04:54:02.203Z,39.70
2023-02-07T04:55:02.189Z,41.00
2023-02-07T04:56:02.203Z,42.50
2023-02-07T04:57:02.160Z,41.30
2023-02-07T04:58:02.160Z,43.00
2023-02-07T04:59:02.140Z,42.10
2023-02-07T05:00:02.154Z,41.00
2023-02-07T05:01:02.174Z,43.10
2023-02-07T05:02:02.137Z,41.70
2023-02-07T05:03:02.126Z,42.30
2023-02-07T05:04:34.976Z,39.20
2023-02-07T05:05:02.117Z,41.40
2023-02-07T05:06:02.127Z,43.10
2023-02-07T05:07:02.087Z,41.70
2023-02-07T05:08:02.078Z,41.90
2023-02-07T05:09:02.060Z,43.00
2023-02-07T05:10:03.071Z,43.60
2023-02-07T05:11:02.071Z,41.30
2023-02-07T05:12:02.104Z,42.00
2023-02-07T05:13:02.054Z,43.30
2023-02-07T05:14:02.044Z,43.70
2023-02-07T05:15:02.040Z,41.20
2023-02-07T05:16:02.021Z,43.90
2023-02-07T05:17:02.047Z,43.30
2023-02-07T05:18:02.010Z,42.90
2023-02-07T05:19:01.996Z,42.70
2023-02-07T05:20:01.993Z,45.00
2023-02-07T05:21:02.001Z,45.00
2023-02-07T05:22:02.009Z,43.20
2023-02-07T05:23:01.983Z,43.10
2023-02-07T05:24:01.953Z,45.00
2023-02-07T05:25:02.961Z,44.70
2023-02-07T05:26:01.962Z,43.00
2023-02-07T05:27:01.977Z,45.20
2023-02-07T05:28:01.984Z,43.70
2023-02-07T05:29:01.928Z,45.60
2023-02-07T05:30:01.928Z,44.40
2023-02-07T05:31:01.996Z,46.00
2023-02-07T05:32:01.936Z,46.90
2023-02-07T05:33:01.898Z,44.70
2023-02-07T05:34:01.899Z,44.30
2023-02-07T05:35:02.452Z,45.90
2023-02-07T05:36:01.885Z,45.80
2023-02-07T05:37:01.900Z,46.40
2023-02-07T05:38:01.894Z,48.30
2023-02-07T05:39:02.759Z,44.50
2023-02-07T05:40:01.845Z,47.80
2023-02-07T05:41:01.875Z,47.40
2023-02-07T05:42:01.897Z,45.70
2023-02-07T05:43:01.838Z,45.10
2023-02-07T05:44:01.824Z,48.60
2023-02-07T05:45:02.854Z,54.60
2023-02-07T05:46:01.873Z,47.40
2023-02-07T05:47:01.842Z,47.10
2023-02-07T05:48:01.801Z,47.80
2023-02-07T05:49:01.783Z,47.80
2023-02-07T05:50:01.790Z,48.00
2023-02-07T05:51:01.776Z,47.00
2023-02-07T05:52:01.761Z,48.00
2023-02-07T05:53:01.782Z,48.60
2023-02-07T05:54:01.750Z,47.70
2023-02-07T05:55:01.736Z,46.50
2023-02-07T05:56:01.727Z,48.80
2023-02-07T05:57:01.721Z,45.80
2023-02-07T05:58:01.750Z,46.10
2023-02-07T05:59:01.704Z,49.30
2023-02-07T06:00:01.701Z,47.60
2023-02-07T06:01:01.690Z,46.90
2023-02-07T06:02:01.683Z,47.50
2023-02-07T06:03:01.703Z,46.30
2023-02-07T06:04:01.670Z,49.70
2023-02-07T06:05:01.666Z,49.40
2023-02-07T06:06:01.658Z,48.30
2023-02-07T06:07:01.664Z,48.20
2023-02-07T06:08:01.689Z,50.40
2023-02-07T06:09:01.640Z,48.40
2023-02-07T06:10:01.642Z,47.30
2023-02-07T06:11:01.625Z,50.10
2023-02-07T06:12:03.131Z,48.70
2023-02-07T06:13:01.639Z,50.00
2023-02-07T06:14:01.605Z,46.10
2023-02-07T06:15:01.592Z,47.80
2023-02-07T06:16:01.600Z,47.40
2023-02-07T06:17:01.588Z,46.80
2023-02-07T06:18:01.616Z,50.50
2023-02-07T06:19:01.572Z,48.10
2023-02-07T06:20:01.568Z,47.40
2023-02-07T06:21:01.555Z,48.20
2023-02-07T06:22:01.550Z,46.10
2023-02-07T06:23:01.581Z,46.60
2023-02-07T06:24:01.538Z,48.10
2023-02-07T06:25:01.556Z,48.30
2023-02-07T06:26:01.549Z,46.80
2023-02-07T06:27:01.532Z,44.70
2023-02-07T06:28:01.649Z,45.90
2023-02-07T06:29:01.497Z,48.20
2023-02-07T06:30:01.503Z,48.10
2023-02-07T06:31:01.613Z,50.30
2023-02-07T06:32:01.477Z,48.80
2023-02-07T06:33:01.497Z,50.30
2023-02-07T06:34:01.469Z,49.10
2023-02-07T06:35:01.483Z,49.30
2023-02-07T06:36:01.439Z,47.70
2023-02-07T06:37:01.457Z,49.60
2023-02-07T06:38:01.468Z,48.80
2023-02-07T06:39:01.431Z,47.90
2023-02-07T06:40:01.445Z,48.80
2023-02-07T06:41:01.407Z,48.70
2023-02-07T06:42:01.406Z,52.10
2023-02-07T06:43:01.429Z,50.50
2023-02-07T06:44:01.386Z,53.20
2023-02-07T06:45:01.518Z,50.10
2023-02-07T06:46:01.397Z,51.30
2023-02-07T06:47:01.375Z,48.10
2023-02-07T06:48:02.394Z,50.40
2023-02-07T06:49:01.398Z,49.10
2023-02-07T06:50:01.360Z,51.00
2023-02-07T06:51:01.343Z,52.20
2023-02-07T06:52:01.331Z,51.60
2023-02-07T06:53:01.378Z,51.10
2023-02-07T06:54:01.323Z,53.80
2023-02-07T06:55:01.319Z,53.70
2023-02-07T06:56:01.324Z,52.30
2023-02-07T06:57:01.334Z,50.80
2023-02-07T06:58:01.321Z,53.30
2023-02-07T06:59:01.317Z,52.30
2023-02-07T07:00:01.281Z,54.30
2023-02-07T07:01:01.269Z,52.10
2023-02-07T07:02:01.299Z,53.50
2023-02-07T07:03:01.327Z,50.90
2023-02-07T07:04:01.312Z,52.30
2023-02-07T07:05:01.245Z,51.50
2023-02-07T07:06:01.241Z,51.40
2023-02-07T07:07:01.239Z,51.20
2023-02-07T07:08:01.229Z,54.10
2023-02-07T07:09:01.241Z,50.30
2023-02-07T07:10:01.285Z,53.00
2023-02-07T07:11:02.246Z,49.30
2023-02-07T07:12:01.201Z,48.70
2023-02-07T07:13:01.197Z,50.70
2023-02-07T07:14:01.201Z,50.40
2023-02-07T07:15:01.178Z,48.00
2023-02-07T07:16:01.185Z,50.90
2023-02-07T07:17:01.170Z,51.20
2023-02-07T07:18:01.144Z,51.30
2023-02-07T07:19:01.164Z,51.80
2023-02-07T07:20:01.126Z,50.10
2023-02-07T07:21:01.120Z,53.90
2023-02-07T07:22:01.123Z,51.70
2023-02-07T07:23:01.102Z,51.40
2023-02-07T07:24:01.124Z,53.90
2023-02-07T07:25:01.111Z,50.10
2023-02-07T07:26:01.093Z,52.60
2023-02-07T07:27:01.081Z,51.60
2023-02-07T07:28:01.095Z,52.90
2023-02-07T07:29:01.089Z,52.60
2023-02-07T07:30:01.100Z,52.20
2023-02-07T07:31:01.117Z,52.40
2023-02-07T07:32:02.063Z,52.20
2023-02-07T07:33:01.031Z,51.00
2023-02-07T07:34:01.053Z,51.00
2023-02-07T07:35:01.057Z,49.60
2023-02-07T07:36:01.007Z,52.10
2023-02-07T07:37:01.002Z,50.90
2023-02-07T07:38:00.998Z,50.00
2023-02-07T07:39:01.016Z,51.70
2023-02-07T07:40:00.986Z,50.10
2023-02-07T07:41:00.967Z,52.90
2023-02-07T07:42:00.993Z,49.50
2023-02-07T07:43:00.952Z,50.00
2023-02-07T07:44:00.975Z,47.90
2023-02-07T07:45:00.937Z,48.60
2023-02-07T07:46:00.929Z,48.40
2023-02-07T07:47:00.921Z,51.10
2023-02-07T07:48:00.973Z,47.40
2023-02-07T07:49:00.941Z,49.30
2023-02-07T07:50:00.910Z,47.10
2023-02-07T07:51:00.935Z,48.60
2023-02-07T07:52:00.892Z,51.60
2023-02-07T07:53:00.876Z,51.70
2023-02-07T07:54:00.894Z,50.40
2023-02-07T07:55:00.865Z,47.70
2023-02-07T07:56:00.878Z,46.50
2023-02-07T07:57:00.848Z,47.40
2023-02-07T07:58:00.843Z,48.10
2023-02-07T07:59:06.118Z,48.40
2023-02-07T08:00:02.849Z,48.20
2023-02-07T08:01:00.913Z,47.10
2023-02-07T08:02:00.806Z,46.80
2023-02-07T08:03:00.804Z,50.20
2023-02-07T08:04:00.822Z,48.10
2023-02-07T08:05:00.813Z,48.80
2023-02-07T08:06:00.782Z,48.30
2023-02-07T08:07:00.780Z,49.80
2023-02-07T08:08:00.777Z,51.60
2023-02-07T08:09:00.771Z,50.70
2023-02-07T08:10:00.775Z,48.10
2023-02-07T08:11:00.747Z,49.90
2023-02-07T08:12:00.736Z,59.10
2023-02-07T08:13:00.732Z,47.90
2023-02-07T08:14:00.724Z,45.30
2023-02-07T08:15:00.925Z,45.50
2023-02-07T08:16:00.752Z,49.20
2023-02-07T08:17:00.700Z,57.40
2023-02-07T08:18:00.714Z,55.70
2023-02-07T08:19:00.709Z,55.70
2023-02-07T08:20:00.732Z,59.80
2023-02-07T08:21:00.670Z,54.20
2023-02-07T08:22:00.681Z,51.10
2023-02-07T08:23:00.660Z,50.20
2023-02-07T08:24:00.653Z,54.00
2023-02-07T08:25:00.684Z,49.60
2023-02-07T08:26:00.654Z,48.20
2023-02-07T08:27:00.634Z,49.60
2023-02-07T08:28:02.156Z,49.40
2023-02-07T08:29:00.616Z,51.30
2023-02-07T08:30:00.701Z,49.20
2023-02-07T08:31:00.643Z,49.50
2023-02-07T08:32:00.666Z,49.90
2023-02-07T08:33:00.605Z,51.40
2023-02-07T08:34:00.588Z,49.10
2023-02-07T08:35:00.604Z,51.50
2023-02-07T08:36:00.626Z,51.40
2023-02-07T08:37:00.567Z,48.30
2023-02-07T08:38:00.557Z,50.70
2023-02-07T08:39:00.564Z,49.70
2023-02-07T08:40:00.561Z,50.30
2023-02-07T08:41:00.563Z,50.20
2023-02-07T08:42:00.524Z,47.90
2023-02-07T08:43:00.521Z,48.30
2023-02-07T08:44:00.517Z,47.60
2023-02-07T08:45:00.532Z,47.50
2023-02-07T08:46:00.636Z,54.70
2023-02-07T08:47:00.486Z,48.90
2023-02-07T08:48:00.510Z,62.40
2023-02-07T08:49:00.488Z,53.90
2023-02-07T08:50:00.501Z,47.50
2023-02-07T08:51:00.461Z,50.30
2023-02-07T08:52:00.452Z,46.60
2023-02-07T08:53:00.446Z,45.10
2023-02-07T08:54:00.433Z,45.20
2023-02-07T08:55:00.466Z,44.40
2023-02-07T08:56:00.415Z,43.00
2023-02-07T08:57:00.409Z,43.70
2023-02-07T08:58:00.404Z,44.60
2023-02-07T08:59:00.397Z,45.20
2023-02-07T09:00:00.414Z,58.20
2023-02-07T09:01:00.475Z,52.80
2023-02-07T09:02:00.458Z,47.40
2023-02-07T09:03:00.364Z,59.20
2023-02-07T09:04:00.364Z,46.10
2023-02-07T09:05:00.378Z,55.30
2023-02-07T09:06:00.340Z,51.80
2023-02-07T09:07:00.335Z,87.90
2023-02-07T09:08:00.336Z,59.30
2023-02-07T09:09:00.338Z,54.70
2023-02-07T09:10:00.338Z,45.70
2023-02-07T09:11:00.355Z,48.30
2023-02-07T09:12:00.304Z,59.60
2023-02-07T09:13:00.304Z,49.00
2023-02-07T09:14:00.282Z,41.70
2023-02-07T09:15:00.308Z,43.10
2023-02-07T09:16:00.272Z,43.80
2023-02-07T09:17:00.300Z,46.50
2023-02-07T09:18:00.262Z,50.60
2023-02-07T09:19:00.245Z,44.50
2023-02-07T09:20:00.266Z,44.70
2023-02-07T09:21:00.233Z,42.50
2023-02-07T09:22:00.229Z,46.20
2023-02-07T09:23:00.221Z,47.10
2023-02-07T09:24:00.215Z,46.60
2023-02-07T09:25:00.256Z,42.60
2023-02-07T09:26:00.216Z,43.30
2023-02-07T09:27:00.212Z,46.20
2023-02-07T09:28:00.216Z,46.80
2023-02-07T09:29:00.172Z,42.00
2023-02-07T09:30:00.199Z,47.90
2023-02-07T09:31:00.307Z,45.60
2023-02-07T09:32:00.195Z,43.00
2023-02-07T09:33:00.148Z,42.80
2023-02-07T09:34:00.165Z,43.30
2023-02-07T09:35:00.182Z,44.20
2023-02-07T09:36:00.149Z,44.40
2023-02-07T09:37:00.118Z,44.50
2023-02-07T09:38:00.149Z,42.70
2023-02-07T09:39:00.119Z,45.10
2023-02-07T09:40:00.142Z,44.00
2023-02-07T09:41:00.100Z,45.80
2023-02-07T09:42:00.080Z,43.70
2023-02-07T09:43:01.288Z,43.20
2023-02-07T09:44:00.244Z,47.20
2023-02-07T09:45:00.240Z,43.50
2023-02-07T09:46:00.093Z,45.10
2023-02-07T09:47:00.060Z,46.90
2023-02-07T09:48:00.051Z,43.90
2023-02-07T09:49:00.027Z,46.30
2023-02-07T09:50:00.019Z,40.00
2023-02-07T09:51:00.047Z,42.30
2023-02-07T09:52:00.007Z,42.90
2023-02-07T09:53:00.001Z,41.30
2023-02-07T09:53:59.995Z,44.00
2023-02-07T09:54:59.994Z,46.00
2023-02-07T09:56:00.006Z,42.70
2023-02-07T09:56:59.967Z,41.90
2023-02-07T09:57:59.973Z,42.40
2023-02-07T09:58:59.950Z,43.30
2023-02-07T09:59:59.952Z,47.80
2023-02-07T10:00:59.995Z,42.50
2023-02-07T10:01:59.927Z,40.70
2023-02-07T10:02:59.934Z,42.10
2023-02-07T10:03:59.915Z,43.20
2023-02-07T10:04:59.900Z,39.10
2023-02-07T10:06:09.196Z,41.00
2023-02-07T10:07:00.894Z,39.00
2023-02-07T10:07:59.883Z,37.70
2023-02-07T10:08:59.873Z,36.30
2023-02-07T10:09:59.862Z,38.80
2023-02-07T10:10:59.880Z,39.10
2023-02-07T10:11:59.889Z,41.30
2023-02-07T10:12:59.825Z,41.10
2023-02-07T10:14:00.838Z,38.50
2023-02-07T10:14:59.833Z,39.40
2023-02-07T10:15:59.870Z,35.10
2023-02-07T10:16:59.809Z,36.80
2023-02-07T10:17:59.811Z,38.60
2023-02-07T10:18:59.796Z,37.50
2023-02-07T10:19:59.787Z,37.70
2023-02-07T10:20:59.837Z,37.20
2023-02-07T10:21:59.770Z,37.60
2023-02-07T10:22:59.768Z,36.40
2023-02-07T10:23:59.757Z,35.50
2023-02-07T10:24:59.750Z,35.40
2023-02-07T10:25:59.780Z,34.60
2023-02-07T10:26:59.732Z,35.60
2023-02-07T10:27:59.759Z,33.30
2023-02-07T10:28:59.722Z,32.20
2023-02-07T10:29:59.715Z,29.60
2023-02-07T10:30:59.847Z,31.40
2023-02-07T10:31:59.701Z,30.90
2023-02-07T10:32:59.685Z,31.80
2023-02-07T10:33:59.679Z,29.10
2023-02-07T10:34:59.674Z,31.40
2023-02-07T10:35:59.664Z,30.90
2023-02-07T10:36:59.679Z,28.70
2023-02-07T10:37:59.648Z,28.00
2023-02-07T10:39:08.417Z,29.40
2023-02-07T10:40:01.639Z,31.00
2023-02-07T10:40:59.626Z,29.50
2023-02-07T10:41:59.663Z,29.70
2023-02-07T10:42:59.694Z,29.80
2023-02-07T10:43:59.606Z,30.00
2023-02-07T10:44:59.613Z,27.60
2023-02-07T10:46:04.493Z,30.20
2023-02-07T10:47:01.658Z,29.10
2023-02-07T10:47:59.588Z,29.90
2023-02-07T10:48:59.570Z,28.90
2023-02-07T10:49:59.567Z,29.90
2023-02-07T10:50:59.555Z,27.90
2023-02-07T10:51:59.582Z,28.00
2023-02-07T10:52:59.579Z,28.90
2023-02-07T10:53:59.677Z,28.90
2023-02-07T10:54:59.527Z,29.20
2023-02-07T10:55:59.518Z,28.00
2023-02-07T10:57:02.261Z,28.60
2023-02-07T10:58:08.624Z,27.00
2023-02-07T10:59:01.514Z,26.00
2023-02-07T10:59:59.498Z,26.30
2023-02-07T11:00:59.504Z,26.60
2023-02-07T11:01:59.639Z,27.80
2023-02-07T11:02:59.519Z,27.30
2023-02-07T11:05:11.148Z,25.90
2023-02-07T11:06:11.164Z,26.50
2023-02-07T11:07:11.219Z,29.50
2023-02-07T11:08:11.149Z,26.80
2023-02-07T11:09:12.295Z,26.80
2023-02-07T11:10:12.279Z,30.00
2023-02-07T11:11:12.265Z,28.00
2023-02-07T11:12:12.320Z,27.70
2023-02-07T11:13:12.329Z,26.40
2023-02-07T11:14:12.254Z,25.90
2023-02-07T11:15:12.246Z,26.00
2023-02-07T11:16:12.248Z,26.00
2023-02-07T11:17:12.267Z,24.80
2023-02-07T11:18:12.213Z,27.80
2023-02-07T11:19:12.226Z,26.10
2023-02-07T11:20:12.200Z,24.80
2023-02-07T11:21:12.198Z,29.20
2023-02-07T11:22:12.219Z,26.10
2023-02-07T11:23:12.211Z,27.10
2023-02-07T11:24:12.176Z,27.30
2023-02-07T11:25:12.158Z,32.40
2023-02-07T11:26:12.169Z,30.00
2023-02-07T11:27:12.152Z,24.90
2023-02-07T11:28:12.200Z,27.20
2023-02-07T11:29:12.135Z,26.80
2023-02-07T11:30:12.132Z,26.10
2023-02-07T11:31:12.166Z,22.90
2023-02-07T11:32:12.115Z,23.60
2023-02-07T11:33:12.132Z,23.60
2023-02-07T11:34:12.125Z,26.40
2023-02-07T11:35:12.092Z,26.70
2023-02-07T11:36:12.095Z,29.20
2023-02-07T11:37:12.079Z,23.40
2023-02-07T11:38:12.092Z,25.10
2023-02-07T11:39:12.126Z,23.40
2023-02-07T11:40:12.063Z,23.10
2023-02-07T11:41:12.048Z,21.80
2023-02-07T11:42:12.034Z,22.40
2023-02-07T11:43:12.059Z,24.30
2023-02-07T11:44:12.028Z,23.50
2023-02-07T11:45:12.019Z,23.90
2023-02-07T11:46:12.013Z,25.40
2023-02-07T11:47:12.008Z,27.80
2023-02-07T11:48:12.015Z,23.60
2023-02-07T11:49:11.997Z,22.70
2023-02-07T11:50:11.977Z,21.70
2023-02-07T11:51:11.967Z,22.40
2023-02-07T11:52:11.976Z,22.20
2023-02-07T11:53:11.981Z,22.00
2023-02-07T11:54:11.934Z,21.10
2023-02-07T11:55:12.935Z,22.30
2023-02-07T11:56:11.930Z,22.00
2023-02-07T11:57:11.922Z,21.00
2023-02-07T11:58:11.933Z,21.70
2023-02-07T11:59:11.910Z,20.90
2023-02-07T12:00:11.943Z,21.30
2023-02-07T12:01:11.896Z,22.00
2023-02-07T12:02:11.940Z,20.80
2023-02-07T12:03:11.906Z,20.60
2023-02-07T12:04:11.881Z,20.30
2023-02-07T12:05:11.930Z,20.90
2023-02-07T12:06:11.855Z,20.90
2023-02-07T12:07:11.847Z,20.70
2023-02-07T12:08:11.872Z,20.90
2023-02-07T12:09:11.836Z,21.50
2023-02-07T12:10:11.818Z,21.20
2023-02-07T12:11:11.816Z,22.00
2023-02-07T12:12:11.807Z,19.90
2023-02-07T12:13:11.838Z,20.10
2023-02-07T12:14:11.792Z,20.70
2023-02-07T12:15:11.786Z,20.10
2023-02-07T12:16:11.807Z,21.80
2023-02-07T12:17:11.785Z,20.80
2023-02-07T12:18:11.807Z,19.40
2023-02-07T12:19:11.760Z,19.60
2023-02-07T12:20:11.747Z,21.30
2023-02-07T12:21:11.734Z,21.40
2023-02-07T12:22:11.736Z,19.70
2023-02-07T12:23:39.202Z,21.80
2023-02-07T12:24:13.776Z,19.40
2023-02-07T12:25:11.711Z,20.10
2023-02-07T12:26:11.717Z,20.50
2023-02-07T12:27:11.704Z,20.10
2023-02-07T12:28:11.857Z,21.40
2023-02-07T12:29:13.767Z,21.90
2023-02-07T12:30:12.680Z,20.80
2023-02-07T12:31:11.773Z,19.60
2023-02-07T12:32:11.814Z,20.70
2023-02-07T12:33:11.663Z,19.40
2023-02-07T12:34:11.678Z,21.80
2023-02-07T12:35:11.643Z,19.40
2023-02-07T12:36:11.632Z,19.60
2023-02-07T12:37:11.625Z,20.70
2023-02-07T12:38:11.618Z,22.80
2023-02-07T12:39:11.643Z,23.80
2023-02-07T12:40:11.600Z,22.50
2023-02-07T12:41:11.589Z,26.00
2023-02-07T12:42:11.585Z,19.70
2023-02-07T12:43:11.580Z,19.00
2023-02-07T12:44:11.593Z,20.40
2023-02-07T12:45:15.721Z,19.60
2023-02-07T12:46:11.921Z,20.10
2023-02-07T12:47:11.634Z,19.50
2023-02-07T12:48:11.780Z,18.90
2023-02-07T12:49:11.814Z,19.40
2023-02-07T12:50:11.583Z,19.40
2023-02-07T12:51:11.985Z,20.10
2023-02-07T12:52:11.520Z,19.10
2023-02-07T12:53:11.562Z,19.30